Tulsa International Airport
KTUL : now visible

Airfield :











YOU CAN JOIN US ON...

 
LOGIN :

Register | Disclaimer

   EN    FR    IT 

 









Legend :    VFR   Marginal VFR   IFR   Intensive IFR   Very Intensive IFR
Visi :
Ceiling :
>= 8 km
>= 3000ft
5 to 8 km
1000 to 3000 ft
1500m to 5 km
500 to 1000 ft
800 to 1500m
200 to 500 ft
< 800m
< 200 ft
Symbols :   Thunderstorms  Fog  Heavy snow  Heavy precipitations  Wind > 20 kt






- Airport Elevation : 677 ft
- IATA code : TUL


KTUL - Tulsa International

CURRENT METAR :
  • 291153Z 34011KT 7SM -SN OVC007 01/00 A3007 RMK AO2 RAB15E28SNB28 SLP185 PCPN VRY LGT P0000 60003 70056 T00110000 10017 20011 53017 $

EXPIRED METARs :
  • 291053Z 35013KT 8SM OVC007 01/00 A3005 RMK AO2 RAE12 SLP180 P0000 T00110000 $
  • 290953Z 34012KT 8SM -RA OVC006 01/00 A3003 RMK AO2 SLP172 P0000 T00110000 $

TAF KTUL
Valid from the 29 at 12:00 until the 30 at 12:00 UTC


291122Z 2912/3012 35011G18KT P6SM OVC007
FM291600 01010KT P6SM OVC015
TEMPO 2922/3002 SCT015 OVC025
FM300600 35003KT 3SM BR OVC015



MET'MAP, your aeronautical weather chart ! - Copyright ORBIFLY December 2007 - Disclaimer

ORBIFLY MET'MAP TEAM :

Programming & Development : Alexandra Zaïnal
Concept & original design : Baudouin d'Aumeries
Assistance for programming : Marc-Olivier Méhu
Technical & hardware support : Manuel Goepfert

Contact : metmap@orbifly.com




SOURCES & CREDITS :

   NOAA       Earth
Advisory